Kardla, Estonia

9:28 AM EET on January 29, 2015 (GMT +0200)
Kardla | Change Station
CLOSE
Current Station
Airport
Location: KARDLA,
Elevation: 13 ft
Nearby Weather Stations

Elev 13 ft 58.99 °N, 22.83 °E | Updated 38 minutes ago

Overcast
Overcast
32 °F
Feels Like 20 °F
N
21
Wind Variable Wind from SSE
Gusts 32 mph

Today
High -- | Low -- °F
--% Chance of Precip.
Yesterday
High -- | Low -- °F
Precip. -- in
8:44 AM 4:39 PM
Waxing Gibbous, 72% visible
Pressure 29.03 in
Visibility 6.2 miles
Clouds Overcast 1300 ft
Windchill 20 °F
Dew Point 28 °F
Humidity 87%
Rainfall 0.00 in
Snow Depth Not available.
UV 0 out of 12
Pollen Not available.
Air Quality Not available.
Flu Activity Not available.
METAR EEKA 290650Z 16018G28KT 9999 OVC013 00/M02 Q0983

More Conditions Fewer Conditions

Pressure 29.03 in
Visibility 6.2 miles
Clouds Overcast 1300 ft
Windchill 20 °F
Dew Point 28 °F
Humidity 87%
Rainfall 0.00 in
Snow Depth Not available.
UV 0 out of 12
Pollen Not available.
Air Quality Not available.
Flu Activity Not available.
METAR EEKA 290650Z 16018G28KT 9999 OVC013 00/M02 Q0983

More Conditions Fewer Conditions

10-Day Weather Forecast

Almanac

Astronomy

Jan. 29, 2015 Rise Set
Actual Time
Civil Twilight
Nautical Twilight
Astronomical Twilight
Moon
Length of Visible Light
Length of Day
Tomorrow will be .
, % of the Moon is Illuminated

Today's Extremes

Country Highs Country Lows

Community

WunderPhotos

Upload Photos

1,791,387 photos uploaded!

WunderBlogs® & News

Nearby

Air Quality

  Air Quality AQ Index Pollutant
Not available.

Snow Depth

Station Depth Elevation

Earthquake Activity

City Distance Mag. Time & Date
Minimum magnitude displayed is 2.5.

Coastal Water Temperatures

Place Temperature

Nearby Weather Stations